Time;durP1;ratioP1;P1;durP2;ratioP2;P2;SDS_P1;SDS_P2;PMS_P1;PMS_P2;Temp;Humidity;BMP_temperature;BMP_pressure;BME280_temperature;BME280_humidity;BME280_pressure;Samples;Min_cycle;Max_cycle;Signal;HPM_P1;HPM_P2
2023/11/20 00:00:12;;;;;;;26.10;22.73;;;;;;;;;;338446;29;915;-71
2023/11/20 00:00:23;;;;;;;26.23;22.23;;;;;;;;;;340343;29;919;-71
2023/11/20 00:00:34;;;;;;;26.27;22.00;;;;;;;;;;340055;29;935;-71
2023/11/20 00:00:45;;;;;;;25.58;21.83;;;;;;;;;;338675;29;833;-71
2023/11/20 00:00:55;;;;;;;26.70;21.87;;;;;;;;;;339020;29;789;-71
2023/11/20 00:01:06;;;;;;;26.42;21.98;;;;;;;;;;338930;29;837;-72
2023/11/20 00:01:23;;;;;;;27.33;22.57;;;;;;;;;;338938;29;1341;-71
2023/11/20 00:01:33;;;;;;;28.38;22.42;;;;;;;;;;338809;29;936;-71
2023/11/20 00:01:44;;;;;;;27.77;21.90;;;;;;;;;;337411;29;892;-71
2023/11/20 00:01:54;;;;;;;25.88;21.15;;;;;;;;;;338923;29;1556;-71
2023/11/20 00:02:06;;;;;;;25.30;21.73;;;;;;;;;;340150;29;1355;-71
2023/11/20 00:02:17;;;;;;;25.48;21.65;;;;;;;;;;337731;29;885;-71
2023/11/20 00:02:27;;;;;;;26.70;22.13;;;;;;;;;;338988;29;1184;-72
2023/11/20 00:02:42;;;;;;;27.80;21.83;;;;;;;;;;337579;29;802;-71
2023/11/20 00:02:52;;;;;;;27.58;22.30;;;;;;;;;;339006;29;845;-71
2023/11/20 00:03:03;;;;;;;27.13;22.63;;;;;;;;;;338783;29;1325;-71
2023/11/20 00:03:13;;;;;;;26.88;22.27;;;;;;;;;;340236;29;1167;-71
2023/11/20 00:03:24;;;;;;;27.63;22.30;;;;;;;;;;338988;29;1469;-71
2023/11/20 00:03:34;;;;;;;26.73;21.98;;;;;;;;;;338781;29;1171;-71
2023/11/20 00:03:45;;;;;;;26.07;22.20;;;;;;;;;;337373;29;1499;-72
2023/11/20 00:03:56;;;;;;;24.33;21.73;;;;;;;;;;337617;29;1004;-71
2023/11/20 00:04:06;;;;;;;25.80;21.85;;;;;;;;;;336357;29;900;-72
2023/11/20 00:04:16;;;;;;;26.23;21.57;;;;;;;;;;336473;29;820;-71
2023/11/20 00:04:27;;;;;;;25.90;21.52;;;;;;;;;;336317;29;1419;-71
2023/11/20 00:04:37;;;;;;;25.20;21.77;;;;;;;;;;336311;29;897;-71
2023/11/20 00:04:48;;;;;;;24.92;21.50;;;;;;;;;;336153;29;1022;-71
2023/11/20 00:04:58;;;;;;;25.33;21.73;;;;;;;;;;337655;29;892;-72
2023/11/20 00:05:09;;;;;;;25.05;21.30;;;;;;;;;;339001;29;904;-71
2023/11/20 00:05:20;;;;;;;25.20;21.15;;;;;;;;;;340331;29;1012;-71
2023/11/20 00:05:30;;;;;;;25.83;21.13;;;;;;;;;;340167;29;1249;-71
2023/11/20 00:05:41;;;;;;;25.48;21.23;;;;;;;;;;338588;29;1418;-71
2023/11/20 00:05:51;;;;;;;25.93;21.47;;;;;;;;;;337718;29;781;-71
2023/11/20 00:06:02;;;;;;;25.38;21.30;;;;;;;;;;338760;29;1352;-71
2023/11/20 00:06:13;;;;;;;27.00;21.38;;;;;;;;;;338920;29;820;-71
2023/11/20 00:06:23;;;;;;;26.53;21.27;;;;;;;;;;338998;29;825;-71
2023/11/20 00:06:34;;;;;;;26.65;21.50;;;;;;;;;;338870;29;829;-72
2023/11/20 00:06:44;;;;;;;26.10;21.95;;;;;;;;;;339951;29;1560;-71
2023/11/20 00:06:55;;;;;;;26.97;22.57;;;;;;;;;;339063;29;840;-71
2023/11/20 00:07:05;;;;;;;27.27;22.05;;;;;;;;;;338893;29;845;-72
2023/11/20 00:07:16;;;;;;;26.30;22.00;;;;;;;;;;337706;29;836;-71
2023/11/20 00:07:26;;;;;;;25.85;21.08;;;;;;;;;;338452;29;1526;-71
2023/11/20 00:07:37;;;;;;;25.07;20.57;;;;;;;;;;340185;29;875;-71
2023/11/20 00:07:47;;;;;;;25.23;20.17;;;;;;;;;;342603;28;1218;-72
2023/11/20 00:07:58;;;;;;;24.57;20.43;;;;;;;;;;341614;29;840;-71
2023/11/20 00:08:08;;;;;;;24.48;21.02;;;;;;;;;;338797;29;1234;-71
2023/11/20 00:08:19;;;;;;;23.40;20.70;;;;;;;;;;341644;29;848;-71
2023/11/20 00:08:29;;;;;;;23.88;20.60;;;;;;;;;;338901;29;940;-71
2023/11/20 00:08:39;;;;;;;24.27;20.23;;;;;;;;;;340219;29;948;-71
2023/11/20 00:08:50;;;;;;;25.15;20.50;;;;;;;;;;341258;29;1307;-71
2023/11/20 00:09:01;;;;;;;24.77;20.87;;;;;;;;;;340226;29;844;-72
2023/11/20 00:09:11;;;;;;;25.05;21.02;;;;;;;;;;341495;29;1290;-72
2023/11/20 00:09:22;;;;;;;25.02;21.02;;;;;;;;;;339020;29;832;-71
2023/11/20 00:09:32;;;;;;;26.70;21.30;;;;;;;;;;338864;29;1367;-72
2023/11/20 00:09:43;;;;;;;26.42;21.08;;;;;;;;;;340035;29;903;-71
2023/11/20 00:09:54;;;;;;;25.80;20.98;;;;;;;;;;340343;29;836;-71
2023/11/20 00:10:05;;;;;;;25.40;21.02;;;;;;;;;;340218;29;857;-71
2023/11/20 00:10:16;;;;;;;25.30;21.13;;;;;;;;;;337656;29;868;-71
2023/11/20 00:10:26;;;;;;;25.50;20.96;;;;;;;;;;339022;29;936;-71
2023/11/20 00:10:38;;;;;;;24.37;20.57;;;;;;;;;;338836;29;864;-71
2023/11/20 00:10:49;;;;;;;24.23;20.13;;;;;;;;;;338786;29;928;-71
2023/11/20 00:11:00;;;;;;;23.60;19.77;;;;;;;;;;337409;29;1319;-71
2023/11/20 00:11:11;;;;;;;24.80;19.92;;;;;;;;;;337667;29;806;-71
2023/11/20 00:11:21;;;;;;;26.40;20.75;;;;;;;;;;340203;29;1231;-71
2023/11/20 00:11:32;;;;;;;27.40;21.17;;;;;;;;;;340045;29;1511;-72
2023/11/20 00:11:42;;;;;;;26.53;21.40;;;;;;;;;;338699;29;1309;-71
2023/11/20 00:11:53;;;;;;;26.20;20.88;;;;;;;;;;338897;29;1365;-71
2023/11/20 00:12:04;;;;;;;27.30;21.30;;;;;;;;;;338816;29;1231;-71
2023/11/20 00:12:15;;;;;;;26.52;20.65;;;;;;;;;;338820;29;1003;-72
2023/11/20 00:12:26;;;;;;;26.25;20.58;;;;;;;;;;339033;29;837;-71
2023/11/20 00:12:36;;;;;;;25.02;20.38;;;;;;;;;;337565;29;853;-71
2023/11/20 00:12:47;;;;;;;24.98;20.80;;;;;;;;;;337291;29;1303;-71
2023/11/20 00:12:57;;;;;;;25.37;20.33;;;;;;;;;;340166;29;1918;-71
2023/11/20 00:13:08;;;;;;;24.15;20.10;;;;;;;;;;340165;29;1412;-71
2023/11/20 00:13:18;;;;;;;24.53;20.57;;;;;;;;;;341487;29;1456;-71
2023/11/20 00:13:29;;;;;;;24.75;21.20;;;;;;;;;;338843;29;1423;-71
2023/11/20 00:13:40;;;;;;;25.88;21.30;;;;;;;;;;338847;29;1230;-71
2023/11/20 00:13:50;;;;;;;27.77;20.90;;;;;;;;;;338735;29;848;-71
2023/11/20 00:14:01;;;;;;;26.48;20.77;;;;;;;;;;337425;29;829;-71
2023/11/20 00:14:11;;;;;;;26.40;20.13;;;;;;;;;;337423;29;1371;-71
2023/11/20 00:14:22;;;;;;;24.55;20.33;;;;;;;;;;337459;29;781;-71
2023/11/20 00:14:32;;;;;;;25.47;20.83;;;;;;;;;;338788;29;832;-72
2023/11/20 00:14:42;;;;;;;26.42;20.67;;;;;;;;;;338857;29;1277;-71
2023/11/20 00:14:53;;;;;;;25.57;20.20;;;;;;;;;;338320;29;852;-71
2023/11/20 00:15:04;;;;;;;24.77;19.67;;;;;;;;;;338833;29;1427;-71
2023/11/20 00:15:14;;;;;;;24.50;20.30;;;;;;;;;;338943;29;844;-72
2023/11/20 00:15:25;;;;;;;25.77;21.00;;;;;;;;;;339018;29;928;-71
2023/11/20 00:15:36;;;;;;;26.40;20.98;;;;;;;;;;337550;29;872;-71
2023/11/20 00:15:47;;;;;;;25.95;20.80;;;;;;;;;;336204;29;849;-71
2023/11/20 00:15:57;;;;;;;25.40;20.95;;;;;;;;;;337606;29;1204;-71
2023/11/20 00:16:09;;;;;;;25.00;20.90;;;;;;;;;;338759;29;1270;-72
2023/11/20 00:16:20;;;;;;;24.88;20.88;;;;;;;;;;340206;29;1556;-71
2023/11/20 00:16:30;;;;;;;25.80;21.13;;;;;;;;;;338821;29;1415;-72
2023/11/20 00:16:41;;;;;;;26.37;21.33;;;;;;;;;;338967;29;876;-71
2023/11/20 00:16:52;;;;;;;26.45;21.17;;;;;;;;;;338529;29;575;-71
2023/11/20 00:17:02;;;;;;;25.73;20.48;;;;;;;;;;338832;29;638;-71
2023/11/20 00:17:14;;;;;;;26.05;20.25;;;;;;;;;;338989;29;801;-72
2023/11/20 00:17:25;;;;;;;26.85;20.20;;;;;;;;;;338977;29;860;-72
2023/11/20 00:17:35;;;;;;;26.08;20.05;;;;;;;;;;338856;29;841;-71
2023/11/20 00:17:47;;;;;;;25.60;19.95;;;;;;;;;;338787;29;817;-71
2023/11/20 00:17:58;;;;;;;24.67;20.42;;;;;;;;;;341653;29;887;-71
2023/11/20 00:18:09;;;;;;;24.58;20.67;;;;;;;;;;338898;29;927;-71
2023/11/20 00:18:19;;;;;;;23.57;20.23;;;;;;;;;;341538;29;563;-71
2023/11/20 00:18:29;;;;;;;23.88;20.35;;;;;;;;;;341365;29;1345;-72
2023/11/20 00:18:40;;;;;;;24.43;20.70;;;;;;;;;;337678;29;837;-71
2023/11/20 00:18:50;;;;;;;24.55;21.48;;;;;;;;;;338824;29;813;-72
2023/11/20 00:19:03;;;;;;;24.67;21.50;;;;;;;;;;337554;29;1465;-71
2023/11/20 00:19:14;;;;;;;24.75;21.40;;;;;;;;;;338834;29;1240;-72
2023/11/20 00:19:25;;;;;;;25.30;21.10;;;;;;;;;;340222;29;880;-71
2023/11/20 00:19:35;;;;;;;23.98;20.73;;;;;;;;;;340177;29;837;-71
2023/11/20 00:19:46;;;;;;;23.37;20.47;;;;;;;;;;340220;29;876;-71
2023/11/20 00:19:57;;;;;;;22.38;19.83;;;;;;;;;;337705;29;794;-71
2023/11/20 00:20:07;;;;;;;22.35;19.40;;;;;;;;;;337637;29;841;-71
2023/11/20 00:20:18;;;;;;;23.92;19.80;;;;;;;;;;338961;29;817;-71
2023/11/20 00:20:28;;;;;;;25.43;20.17;;;;;;;;;;338855;29;880;-71
2023/11/20 00:20:39;;;;;;;25.80;20.77;;;;;;;;;;338765;29;1425;-71
2023/11/20 00:20:49;;;;;;;24.67;20.40;;;;;;;;;;338700;29;1373;-71
2023/11/20 00:21:00;;;;;;;23.60;20.15;;;;;;;;;;338955;29;852;-72
2023/11/20 00:21:10;;;;;;;24.07;20.03;;;;;;;;;;339010;29;876;-71
2023/11/20 00:21:21;;;;;;;24.48;20.50;;;;;;;;;;336312;29;1574;-72
2023/11/20 00:21:33;;;;;;;24.43;20.67;;;;;;;;;;336191;29;869;-71
2023/11/20 00:21:43;;;;;;;24.35;20.65;;;;;;;;;;337705;29;899;-71
2023/11/20 00:21:54;;;;;;;24.85;20.50;;;;;;;;;;338806;29;911;-71
2023/11/20 00:22:04;;;;;;;24.87;20.23;;;;;;;;;;340234;29;828;-71
2023/11/20 00:22:15;;;;;;;24.30;19.92;;;;;;;;;;339882;29;796;-71
2023/11/20 00:22:25;;;;;;;25.93;20.53;;;;;;;;;;340110;29;1417;-71
2023/11/20 00:22:36;;;;;;;25.67;20.30;;;;;;;;;;338871;29;817;-71
2023/11/20 00:22:47;;;;;;;24.23;19.80;;;;;;;;;;338888;29;1327;-71
2023/11/20 00:22:57;;;;;;;22.13;19.07;;;;;;;;;;337648;29;1449;-71
2023/11/20 00:23:08;;;;;;;22.92;19.63;;;;;;;;;;341469;29;1533;-72
2023/11/20 00:23:18;;;;;;;24.30;20.13;;;;;;;;;;340204;29;1159;-71
2023/11/20 00:23:29;;;;;;;26.67;20.27;;;;;;;;;;340237;29;836;-71
2023/11/20 00:23:39;;;;;;;27.08;20.13;;;;;;;;;;338895;29;1402;-71
2023/11/20 00:23:50;;;;;;;26.20;20.23;;;;;;;;;;338741;29;832;-71
2023/11/20 00:24:01;;;;;;;24.60;20.73;;;;;;;;;;340196;29;848;-71
2023/11/20 00:24:11;;;;;;;24.63;21.20;;;;;;;;;;340153;29;1538;-72
2023/11/20 00:24:22;;;;;;;24.38;20.63;;;;;;;;;;340244;29;829;-71
2023/11/20 00:24:32;;;;;;;23.93;20.10;;;;;;;;;;338766;29;1319;-71
2023/11/20 00:24:43;;;;;;;24.40;19.07;;;;;;;;;;336391;29;821;-71
2023/11/20 00:24:53;;;;;;;24.73;19.20;;;;;;;;;;336097;29;1430;-71
2023/11/20 00:25:04;;;;;;;24.58;18.73;;;;;;;;;;341548;29;876;-71
2023/11/20 00:25:14;;;;;;;23.47;18.97;;;;;;;;;;341632;29;1285;-71
2023/11/20 00:25:25;;;;;;;23.63;18.88;;;;;;;;;;341501;28;848;-72
2023/11/20 00:25:35;;;;;;;24.23;18.93;;;;;;;;;;340172;29;1035;-71
2023/11/20 00:25:46;;;;;;;23.95;18.48;;;;;;;;;;340310;29;801;-72
2023/11/20 00:25:57;;;;;;;23.30;18.77;;;;;;;;;;340058;29;801;-71
2023/11/20 00:26:11;;;;;;;23.13;19.63;;;;;;;;;;338915;29;1362;-71
2023/11/20 00:26:22;;;;;;;23.30;20.00;;;;;;;;;;337676;29;872;-71
2023/11/20 00:26:32;;;;;;;23.17;19.77;;;;;;;;;;338766;29;1382;-71
2023/11/20 00:26:43;;;;;;;23.77;20.00;;;;;;;;;;340216;29;1432;-71
2023/11/20 00:26:53;;;;;;;24.10;19.93;;;;;;;;;;340095;29;875;-71
2023/11/20 00:27:04;;;;;;;22.60;19.05;;;;;;;;;;341556;29;847;-71
2023/11/20 00:27:15;;;;;;;21.45;18.80;;;;;;;;;;340335;29;853;-71
2023/11/20 00:27:25;;;;;;;21.75;19.42;;;;;;;;;;337532;29;797;-71
2023/11/20 00:27:36;;;;;;;23.43;20.33;;;;;;;;;;337519;29;1574;-71
2023/11/20 00:27:47;;;;;;;24.08;20.52;;;;;;;;;;337692;29;876;-71
2023/11/20 00:27:57;;;;;;;24.48;20.85;;;;;;;;;;337362;29;1288;-71
2023/11/20 00:28:08;;;;;;;24.20;20.53;;;;;;;;;;337584;29;1337;-71
2023/11/20 00:28:18;;;;;;;24.77;20.63;;;;;;;;;;336436;29;829;-71
2023/11/20 00:28:29;;;;;;;24.42;20.05;;;;;;;;;;336221;29;813;-72
2023/11/20 00:28:42;;;;;;;25.27;19.77;;;;;;;;;;336402;29;869;-71
2023/11/20 00:28:53;;;;;;;25.48;19.67;;;;;;;;;;337455;29;864;-72
2023/11/20 00:29:08;;;;;;;25.48;19.73;;;;;;;;;;337606;29;861;-71
2023/11/20 00:29:18;;;;;;;24.27;19.85;;;;;;;;;;337717;29;872;-72
2023/11/20 00:29:30;;;;;;;23.55;19.75;;;;;;;;;;340161;29;809;-71
2023/11/20 00:29:41;;;;;;;23.58;19.45;;;;;;;;;;341048;29;1410;-72
2023/11/20 00:29:52;;;;;;;23.58;19.80;;;;;;;;;;338703;29;1450;-71
2023/11/20 00:30:03;;;;;;;23.90;19.70;;;;;;;;;;341381;29;1359;-72
2023/11/20 00:30:13;;;;;;;23.98;20.02;;;;;;;;;;338965;29;927;-71
2023/11/20 00:30:26;;;;;;;24.85;20.00;;;;;;;;;;338988;29;801;-71
2023/11/20 00:30:36;;;;;;;24.48;20.27;;;;;;;;;;337334;29;1375;-71
2023/11/20 00:30:47;;;;;;;23.48;19.48;;;;;;;;;;337612;29;1310;-71
2023/11/20 00:30:57;;;;;;;24.13;19.57;;;;;;;;;;339956;29;1293;-72
2023/11/20 00:31:14;;;;;;;24.42;19.38;;;;;;;;;;338912;29;797;-71
2023/11/20 00:31:25;;;;;;;23.92;19.10;;;;;;;;;;340163;29;911;-71
2023/11/20 00:31:35;;;;;;;24.02;18.92;;;;;;;;;;340230;29;828;-71
2023/11/20 00:31:46;;;;;;;24.33;19.23;;;;;;;;;;338931;29;1492;-71
2023/11/20 00:31:56;;;;;;;24.30;19.17;;;;;;;;;;338781;29;817;-71
2023/11/20 00:32:07;;;;;;;25.03;19.67;;;;;;;;;;340055;29;1380;-71
2023/11/20 00:32:17;;;;;;;23.90;19.33;;;;;;;;;;340334;29;855;-71
2023/11/20 00:32:28;;;;;;;23.97;19.70;;;;;;;;;;340099;29;1480;-71
2023/11/20 00:32:38;;;;;;;22.40;19.10;;;;;;;;;;337490;29;1407;-71
2023/11/20 00:32:49;;;;;;;23.97;19.77;;;;;;;;;;338829;29;1308;-71
2023/11/20 00:33:00;;;;;;;24.25;19.75;;;;;;;;;;339961;29;1980;-71
2023/11/20 00:33:10;;;;;;;23.85;20.15;;;;;;;;;;340308;29;880;-71
2023/11/20 00:33:21;;;;;;;22.53;19.40;;;;;;;;;;338834;29;1312;-71
2023/11/20 00:33:33;;;;;;;22.73;19.33;;;;;;;;;;338932;29;859;-72
2023/11/20 00:33:43;;;;;;;24.02;19.90;;;;;;;;;;338954;29;899;-71
2023/11/20 00:33:54;;;;;;;24.40;19.80;;;;;;;;;;338751;29;792;-71
2023/11/20 00:34:04;;;;;;;24.35;19.98;;;;;;;;;;337520;29;1305;-71
2023/11/20 00:34:14;;;;;;;23.90;19.90;;;;;;;;;;338888;29;1278;-71
2023/11/20 00:34:25;;;;;;;23.17;19.98;;;;;;;;;;338856;29;824;-71
2023/11/20 00:34:37;;;;;;;23.93;19.27;;;;;;;;;;338830;29;793;-71
2023/11/20 00:34:48;;;;;;;24.35;18.98;;;;;;;;;;338941;29;852;-72
2023/11/20 00:34:59;;;;;;;25.08;18.83;;;;;;;;;;338694;29;852;-71
2023/11/20 00:35:10;;;;;;;23.70;19.07;;;;;;;;;;340125;29;1391;-71
2023/11/20 00:35:21;;;;;;;22.23;18.40;;;;;;;;;;338943;29;962;-71
2023/11/20 00:35:31;;;;;;;21.07;18.67;;;;;;;;;;339965;29;1306;-71
2023/11/20 00:35:42;;;;;;;21.50;18.88;;;;;;;;;;340251;29;801;-71
2023/11/20 00:35:52;;;;;;;22.77;20.07;;;;;;;;;;337728;29;840;-71
2023/11/20 00:36:03;;;;;;;23.80;19.73;;;;;;;;;;337530;29;915;-72
2023/11/20 00:36:13;;;;;;;23.00;19.23;;;;;;;;;;337703;29;824;-71
2023/11/20 00:36:24;;;;;;;23.33;18.67;;;;;;;;;;337576;29;789;-71
2023/11/20 00:36:35;;;;;;;22.58;18.67;;;;;;;;;;338887;29;840;-71
2023/11/20 00:36:45;;;;;;;22.83;18.40;;;;;;;;;;337562;29;1497;-71
2023/11/20 00:36:57;;;;;;;22.43;18.70;;;;;;;;;;336008;29;1128;-71
2023/11/20 00:37:07;;;;;;;24.13;19.33;;;;;;;;;;337314;29;924;-71
2023/11/20 00:37:18;;;;;;;24.40;19.40;;;;;;;;;;337611;29;848;-71
2023/11/20 00:37:28;;;;;;;24.13;19.20;;;;;;;;;;337670;29;959;-71
2023/11/20 00:37:39;;;;;;;23.83;18.60;;;;;;;;;;337545;29;860;-71
2023/11/20 00:37:50;;;;;;;24.80;19.13;;;;;;;;;;340248;29;808;-71
2023/11/20 00:38:00;;;;;;;25.58;19.58;;;;;;;;;;339913;29;844;-72
2023/11/20 00:38:11;;;;;;;25.53;20.17;;;;;;;;;;341605;29;797;-71
2023/11/20 00:38:21;;;;;;;24.85;19.90;;;;;;;;;;338908;29;904;-71
2023/11/20 00:38:31;;;;;;;22.80;19.37;;;;;;;;;;337488;29;1376;-72
2023/11/20 00:38:42;;;;;;;23.15;18.65;;;;;;;;;;337615;29;1415;-71
2023/11/20 00:38:52;;;;;;;22.77;18.00;;;;;;;;;;337663;29;860;-71
2023/11/20 00:39:03;;;;;;;22.88;17.85;;;;;;;;;;338479;29;1305;-72
2023/11/20 00:39:14;;;;;;;22.10;18.13;;;;;;;;;;340174;29;1381;-71
2023/11/20 00:39:25;;;;;;;21.45;18.15;;;;;;;;;;340649;29;1271;-71
2023/11/20 00:39:35;;;;;;;22.03;19.00;;;;;;;;;;341466;29;1351;-71
2023/11/20 00:39:46;;;;;;;22.65;19.30;;;;;;;;;;341587;29;800;-71
2023/11/20 00:39:56;;;;;;;23.10;19.27;;;;;;;;;;340038;29;864;-71
2023/11/20 00:40:11;;;;;;;23.92;19.35;;;;;;;;;;340253;29;788;-71
2023/11/20 00:40:22;;;;;;;23.38;19.52;;;;;;;;;;338900;29;899;-71
2023/11/20 00:40:33;;;;;;;24.67;20.17;;;;;;;;;;338880;29;947;-71
2023/11/20 00:40:43;;;;;;;25.57;19.90;;;;;;;;;;340158;29;1371;-72
2023/11/20 00:40:54;;;;;;;24.42;19.15;;;;;;;;;;338919;29;1447;-71
2023/11/20 00:41:04;;;;;;;23.92;19.10;;;;;;;;;;339832;29;1385;-72
2023/11/20 00:41:15;;;;;;;22.63;18.37;;;;;;;;;;340187;29;785;-72
2023/11/20 00:41:27;;;;;;;21.77;18.50;;;;;;;;;;340280;29;848;-71
2023/11/20 00:41:37;;;;;;;22.27;18.60;;;;;;;;;;342639;28;1377;-71
2023/11/20 00:41:48;;;;;;;24.20;19.60;;;;;;;;;;341509;29;808;-71
2023/11/20 00:41:58;;;;;;;25.30;19.47;;;;;;;;;;338733;29;880;-71
2023/11/20 00:42:09;;;;;;;24.65;19.50;;;;;;;;;;338938;29;859;-71
2023/11/20 00:42:19;;;;;;;22.80;18.67;;;;;;;;;;341434;29;1223;-71
2023/11/20 00:42:30;;;;;;;22.33;18.42;;;;;;;;;;341486;28;900;-71
2023/11/20 00:42:40;;;;;;;22.30;18.60;;;;;;;;;;340260;29;1519;-71
2023/11/20 00:42:51;;;;;;;22.63;18.88;;;;;;;;;;340205;29;836;-71
2023/11/20 00:43:02;;;;;;;22.83;19.07;;;;;;;;;;339927;29;851;-71
2023/11/20 00:43:13;;;;;;;22.55;18.88;;;;;;;;;;340271;29;888;-71
2023/11/20 00:43:23;;;;;;;21.77;18.87;;;;;;;;;;340240;29;801;-72
2023/11/20 00:43:34;;;;;;;21.70;19.02;;;;;;;;;;340165;29;839;-71
2023/11/20 00:43:45;;;;;;;22.65;19.02;;;;;;;;;;338893;29;1396;-71
2023/11/20 00:43:56;;;;;;;24.40;19.40;;;;;;;;;;340024;29;1390;-71
2023/11/20 00:44:06;;;;;;;24.20;19.13;;;;;;;;;;340209;29;726;-71
2023/11/20 00:44:17;;;;;;;23.93;19.20;;;;;;;;;;340090;29;1535;-71
2023/11/20 00:44:28;;;;;;;23.33;18.63;;;;;;;;;;338457;29;1589;-71
2023/11/20 00:44:38;;;;;;;23.17;18.70;;;;;;;;;;338896;29;828;-72
2023/11/20 00:44:49;;;;;;;23.83;18.83;;;;;;;;;;337687;29;805;-72
2023/11/20 00:44:59;;;;;;;23.27;18.85;;;;;;;;;;337305;29;1530;-72
2023/11/20 00:45:10;;;;;;;22.77;18.67;;;;;;;;;;337618;29;891;-71
2023/11/20 00:45:20;;;;;;;20.75;18.08;;;;;;;;;;338783;29;1419;-72
2023/11/20 00:45:31;;;;;;;20.93;17.73;;;;;;;;;;338929;29;616;-71
2023/11/20 00:45:41;;;;;;;21.02;17.42;;;;;;;;;;338917;29;1237;-71
2023/11/20 00:45:52;;;;;;;21.37;17.60;;;;;;;;;;338875;29;1383;-71
2023/11/20 00:46:02;;;;;;;21.40;18.17;;;;;;;;;;338596;29;844;-71
2023/11/20 00:46:16;;;;;;;21.83;18.48;;;;;;;;;;338917;29;951;-71
2023/11/20 00:46:26;;;;;;;22.45;18.58;;;;;;;;;;337688;29;950;-71
2023/11/20 00:46:37;;;;;;;22.63;18.30;;;;;;;;;;337635;29;880;-72
2023/11/20 00:46:47;;;;;;;23.03;18.60;;;;;;;;;;338989;29;888;-71
2023/11/20 00:46:58;;;;;;;22.83;18.17;;;;;;;;;;339967;29;960;-71
2023/11/20 00:47:09;;;;;;;21.90;17.67;;;;;;;;;;341349;29;1225;-72
2023/11/20 00:47:19;;;;;;;21.08;17.08;;;;;;;;;;341401;29;1341;-71
2023/11/20 00:47:30;;;;;;;21.45;17.77;;;;;;;;;;338880;29;1536;-71
2023/11/20 00:47:40;;;;;;;23.33;18.67;;;;;;;;;;338993;29;896;-71
2023/11/20 00:47:50;;;;;;;22.92;18.65;;;;;;;;;;338992;29;848;-71
2023/11/20 00:48:01;;;;;;;22.90;17.93;;;;;;;;;;338614;29;884;-71
2023/11/20 00:48:13;;;;;;;20.60;17.25;;;;;;;;;;338931;29;856;-71
2023/11/20 00:48:23;;;;;;;21.67;17.38;;;;;;;;;;338929;29;963;-71
2023/11/20 00:48:34;;;;;;;22.58;18.02;;;;;;;;;;338823;29;1370;-71
2023/11/20 00:48:44;;;;;;;22.87;18.30;;;;;;;;;;338984;29;859;-71
2023/11/20 00:48:55;;;;;;;21.95;18.17;;;;;;;;;;338887;29;824;-71
2023/11/20 00:49:05;;;;;;;22.63;18.77;;;;;;;;;;338347;29;844;-71
2023/11/20 00:49:16;;;;;;;22.52;18.48;;;;;;;;;;341504;29;796;-71
2023/11/20 00:49:27;;;;;;;21.88;18.13;;;;;;;;;;340138;29;1209;-72
2023/11/20 00:49:37;;;;;;;21.58;17.90;;;;;;;;;;338895;29;801;-71
2023/11/20 00:49:48;;;;;;;22.30;18.33;;;;;;;;;;338851;29;1257;-71
2023/11/20 00:49:59;;;;;;;22.55;18.50;;;;;;;;;;341234;29;1296;-71
2023/11/20 00:50:10;;;;;;;22.58;18.25;;;;;;;;;;341509;29;934;-72
2023/11/20 00:50:21;;;;;;;21.70;18.15;;;;;;;;;;341526;29;856;-71
2023/11/20 00:50:31;;;;;;;21.38;17.90;;;;;;;;;;340192;29;828;-71
2023/11/20 00:50:42;;;;;;;21.37;18.00;;;;;;;;;;338881;29;1383;-71
2023/11/20 00:50:52;;;;;;;22.92;17.85;;;;;;;;;;338891;29;1384;-72
2023/11/20 00:51:03;;;;;;;23.80;18.10;;;;;;;;;;339786;29;1365;-72
2023/11/20 00:51:13;;;;;;;23.17;17.88;;;;;;;;;;341563;29;836;-71
2023/11/20 00:51:25;;;;;;;23.40;18.15;;;;;;;;;;340252;29;851;-71
2023/11/20 00:51:35;;;;;;;23.10;18.42;;;;;;;;;;340218;29;884;-71
2023/11/20 00:51:46;;;;;;;22.88;18.80;;;;;;;;;;340109;29;899;-71
2023/11/20 00:51:56;;;;;;;22.53;18.80;;;;;;;;;;339971;29;789;-71
2023/11/20 00:52:07;;;;;;;23.95;19.30;;;;;;;;;;341231;29;792;-71
2023/11/20 00:52:17;;;;;;;25.13;19.47;;;;;;;;;;341537;29;842;-71
2023/11/20 00:52:48;;;;;;;24.13;19.17;;;;;;;;;;341642;29;884;-71
2023/11/20 00:52:59;;;;;;;22.90;18.15;;;;;;;;;;340086;29;990;-71
2023/11/20 00:53:09;;;;;;;22.20;18.08;;;;;;;;;;339833;29;911;-72
2023/11/20 00:53:21;;;;;;;21.65;18.40;;;;;;;;;;340220;29;821;-71
2023/11/20 00:53:31;;;;;;;22.92;18.80;;;;;;;;;;340178;29;942;-71
2023/11/20 00:53:42;;;;;;;24.00;18.93;;;;;;;;;;338920;29;1387;-72
2023/11/20 00:53:52;;;;;;;24.60;18.92;;;;;;;;;;341605;29;832;-71
2023/11/20 00:54:03;;;;;;;23.43;18.93;;;;;;;;;;341159;29;801;-71
2023/11/20 00:54:14;;;;;;;23.73;19.00;;;;;;;;;;341436;29;856;-71
2023/11/20 00:54:24;;;;;;;23.02;18.83;;;;;;;;;;341603;29;891;-72
2023/11/20 00:54:35;;;;;;;23.10;18.47;;;;;;;;;;341498;29;895;-71
2023/11/20 00:54:45;;;;;;;22.55;18.25;;;;;;;;;;341518;29;1450;-71
2023/11/20 00:54:57;;;;;;;22.47;18.40;;;;;;;;;;338951;29;844;-71
2023/11/20 00:55:10;;;;;;;23.80;18.75;;;;;;;;;;338545;29;864;-71
2023/11/20 00:55:21;;;;;;;24.17;19.10;;;;;;;;;;338888;29;987;-71
2023/11/20 00:55:31;;;;;;;23.40;18.95;;;;;;;;;;340220;29;900;-71
2023/11/20 00:55:42;;;;;;;22.60;19.30;;;;;;;;;;340278;29;852;-71
2023/11/20 00:55:52;;;;;;;22.50;19.20;;;;;;;;;;340108;29;1259;-71
2023/11/20 00:56:03;;;;;;;22.20;18.67;;;;;;;;;;337182;29;1429;-71
2023/11/20 00:56:18;;;;;;;21.65;17.60;;;;;;;;;;337495;29;856;-72
2023/11/20 00:56:28;;;;;;;21.27;17.45;;;;;;;;;;337624;29;856;-71
2023/11/20 00:56:39;;;;;;;20.90;17.30;;;;;;;;;;338815;29;873;-71
2023/11/20 00:56:49;;;;;;;20.97;17.37;;;;;;;;;;340217;29;1434;-71
2023/11/20 00:57:00;;;;;;;21.50;17.50;;;;;;;;;;340136;29;1384;-71
2023/11/20 00:57:10;;;;;;;22.70;18.33;;;;;;;;;;339803;29;1309;-72
2023/11/20 00:57:21;;;;;;;22.03;18.17;;;;;;;;;;340228;29;825;-71
2023/11/20 00:57:31;;;;;;;22.92;18.23;;;;;;;;;;338777;29;1442;-71
2023/11/20 00:57:42;;;;;;;23.60;18.20;;;;;;;;;;340214;29;1163;-71
2023/11/20 00:57:52;;;;;;;23.92;18.52;;;;;;;;;;340290;29;875;-71
2023/11/20 00:58:03;;;;;;;23.27;18.37;;;;;;;;;;339930;29;844;-71
2023/11/20 00:58:13;;;;;;;24.02;18.58;;;;;;;;;;340017;29;1353;-71
2023/11/20 00:58:24;;;;;;;23.87;18.23;;;;;;;;;;340307;29;844;-71
2023/11/20 00:58:34;;;;;;;22.60;18.25;;;;;;;;;;340213;29;967;-71
2023/11/20 00:58:45;;;;;;;21.67;17.73;;;;;;;;;;340296;29;848;-72
2023/11/20 00:58:56;;;;;;;21.38;17.98;;;;;;;;;;338951;29;880;-71
2023/11/20 00:59:06;;;;;;;22.27;17.98;;;;;;;;;;338549;29;868;-72
2023/11/20 00:59:17;;;;;;;22.20;18.63;;;;;;;;;;338353;29;1606;-71
2023/11/20 00:59:27;;;;;;;21.05;17.88;;;;;;;;;;337584;29;1566;-71
2023/11/20 00:59:38;;;;;;;22.13;17.80;;;;;;;;;;337587;29;892;-71
2023/11/20 00:59:49;;;;;;;23.20;18.07;;;;;;;;;;337686;29;797;-71
2023/11/20 01:00:00;;;;;;;23.45;18.35;;;;;;;;;;337653;29;853;-71
2023/11/20 01:00:11;;;;;;;21.58;17.70;;;;;;;;;;338652;29;872;-72
2023/11/20 01:00:22;;;;;;;20.95;17.20;;;;;;;;;;338898;29;896;-71
2023/11/20 01:00:32;;;;;;;21.00;17.37;;;;;;;;;;338893;29;932;-71
2023/11/20 01:00:43;;;;;;;21.92;17.50;;;;;;;;;;340263;29;848;-71
2023/11/20 01:00:54;;;;;;;22.77;17.57;;;;;;;;;;341495;29;1159;-71
2023/11/20 01:01:05;;;;;;;21.90;16.95;;;;;;;;;;339828;29;844;-71
2023/11/20 01:01:16;;;;;;;22.00;16.87;;;;;;;;;;338787;29;884;-71
2023/11/20 01:01:26;;;;;;;21.67;16.88;;;;;;;;;;340243;29;824;-71
2023/11/20 01:01:37;;;;;;;22.17;16.95;;;;;;;;;;341352;29;1190;-71
2023/11/20 01:01:48;;;;;;;21.67;16.85;;;;;;;;;;341617;29;868;-71
2023/11/20 01:01:59;;;;;;;22.35;17.10;;;;;;;;;;340193;29;1434;-72
2023/11/20 01:02:09;;;;;;;23.63;17.67;;;;;;;;;;339715;29;1257;-72
2023/11/20 01:02:20;;;;;;;22.90;17.40;;;;;;;;;;340208;29;972;-71
2023/11/20 01:02:30;;;;;;;22.00;17.35;;;;;;;;;;341451;29;1308;-71
2023/11/20 01:02:41;;;;;;;21.77;17.30;;;;;;;;;;341600;29;886;-71
2023/11/20 01:02:52;;;;;;;22.17;17.80;;;;;;;;;;341584;29;836;-71
2023/11/20 01:03:02;;;;;;;21.67;17.52;;;;;;;;;;340078;29;1517;-71
2023/11/20 01:03:14;;;;;;;20.85;16.50;;;;;;;;;;339889;29;922;-71
2023/11/20 01:03:24;;;;;;;21.63;16.35;;;;;;;;;;340215;29;847;-71
2023/11/20 01:03:35;;;;;;;22.50;17.07;;;;;;;;;;338639;29;1373;-71
2023/11/20 01:03:45;;;;;;;22.98;17.60;;;;;;;;;;340181;29;1206;-71
2023/11/20 01:03:56;;;;;;;21.87;17.23;;;;;;;;;;340262;29;940;-72
2023/11/20 01:04:07;;;;;;;21.40;17.10;;;;;;;;;;338475;29;1455;-71
2023/11/20 01:04:18;;;;;;;20.07;16.40;;;;;;;;;;338876;29;871;-71
2023/11/20 01:04:28;;;;;;;19.83;16.60;;;;;;;;;;338964;29;895;-72
2023/11/20 01:04:38;;;;;;;19.83;16.47;;;;;;;;;;340155;29;1523;-72
2023/11/20 01:04:49;;;;;;;20.27;16.98;;;;;;;;;;340260;29;902;-71
2023/11/20 01:05:00;;;;;;;21.70;17.33;;;;;;;;;;340175;29;1398;-71
2023/11/20 01:05:11;;;;;;;22.15;17.42;;;;;;;;;;339921;29;895;-71
2023/11/20 01:05:22;;;;;;;22.33;17.60;;;;;;;;;;340210;29;828;-71
2023/11/20 01:05:32;;;;;;;21.10;17.13;;;;;;;;;;340075;29;1332;-71